• Join FlightAware (Why Join?)
  • Login
  • US Flag 
04:28AM EST


 

Airport Tracker/Info


-or-


 

Live Flight TrackerFlight Track Log ✈ RPA3228 ✈ 10-Sep-2013 ✈ KBNA - KDCA

Flight Track Log - Related Links

Times and Time Zones

All times are in EDT time to prevent confusion due to time zone crossing. See the RPA3228 flight status page for this flight to view local times or setup timezone preferences in your user account.

Time Position Orientation Groundspeed Altitude Reporting Facility
EDT Latitude Longitude Course Direction KTS MPH feet Rate Location/Type
07:40AM 36.1333 -86.6833 56° Northeast 148 170 1,200  Level Nashville TRACON
07:41AM 36.1500 -86.7333 292° West 180 207 3,200 2,400 Climbing Nashville TRACON
07:42AM 36.2000 -86.6667 47° Northeast 273 314 6,100 2,640 Climbing Nashville TRACON
07:43AM 36.2504 -86.2998 64° Northeast  Level Estimated
07:44AM 36.2921 -86.1734 64° Northeast  Level Estimated
07:44AM 36.1950 -86.5172 92° East 305 351 10,700  Level Memphis Center
07:45AM 36.3336 -86.0469 68° East  Level Estimated
07:45AM 36.1958 -86.4092 89° East 313 360 13,000  Level Memphis Center
07:46AM 36.3751 -85.9203 56° Northeast  Level Estimated
07:46AM 36.1983 -86.2933 88° East 328 377 15,400  Level Memphis Center
07:47AM 36.2003 -86.1622 89° East 333 383 17,500 1,980 Climbing Memphis Center
07:48AM 36.2125 -86.0381 83° East 353 406 19,400 1,800 Climbing Memphis Center
07:49AM 36.2650 -85.9244 60° Northeast 359 413 21,200 1,740 Climbing Memphis Center
07:50AM 36.2950 -85.8558 62° Northeast 379 436 22,400 1,560 Climbing Indianapolis Center
07:51AM 36.3481 -85.7425 60° Northeast 383 441 24,000 1,560 Climbing Indianapolis Center
07:52AM 36.4039 -85.6256 59° Northeast 388 447 25,600 1,680 Climbing Indianapolis Center
07:53AM 36.4597 -85.5058 60° Northeast 395 455 27,500 2,040 Climbing Indianapolis Center
07:54AM 36.5275 -85.3631 59° Northeast 398 458 29,800 1,680 Climbing Indianapolis Center
07:55AM 36.5847 -85.2433 59° Northeast 400 460 31,000 540 Climbing Indianapolis Center
07:56AM 36.6328 -85.1217 64° Northeast 393 452 31,000  Level Indianapolis Center
07:57AM 36.6711 -84.9933 70° East 394 453 31,000  Level Indianapolis Center
07:58AM 36.7100 -84.8653 69° East 393 452 31,000  Level Indianapolis Center
07:59AM 36.7494 -84.7369 69° East 394 453 31,000  Level Indianapolis Center
08:00AM 36.7883 -84.6075 69° East 396 456 31,000  Level Indianapolis Center
08:01AM 36.8261 -84.4817 69° East 395 455 31,000  Level Indianapolis Center
08:02AM 36.8711 -84.3319 69° East 394 453 31,000  Level Indianapolis Center
08:03AM 36.9114 -84.2033 69° East 396 456 31,000  Level Indianapolis Center
08:04AM 36.9486 -84.0722 70° East 399 459 31,000  Level Indianapolis Center
08:05AM 36.9881 -83.9436 69° East 396 456 31,000  Level Indianapolis Center
08:06AM 37.0275 -83.8125 69° East 401 461 31,000  Level Indianapolis Center
08:07AM 37.0664 -83.6811 70° East 404 465 31,000  Level Indianapolis Center
08:08AM 37.1061 -83.5494 69° East 404 465 31,000  Level Indianapolis Center
08:09AM 37.1433 -83.4172 71° East 403 464 31,000  Level Indianapolis Center
08:10AM 37.1872 -83.2642 70° East 401 461 31,000  Level Indianapolis Center
08:11AM 37.2256 -83.1328 70° East 398 458 31,000  Level Indianapolis Center
08:12AM 37.2639 -83.0006 70° East 400 460 31,000  Level Indianapolis Center
08:13AM 37.3003 -82.8694 71° East 396 456 31,000  Level Indianapolis Center
08:14AM 37.3372 -82.7400 70° East 394 453 31,000  Level Indianapolis Center
08:15AM 37.3747 -82.6094 70° East 394 453 31,000  Level Indianapolis Center
08:16AM 37.4103 -82.4806 71° East 391 450 31,000  Level Indianapolis Center
08:17AM 37.4469 -82.3508 70° East 392 451 31,000  Level Indianapolis Center
08:18AM 37.4836 -82.2222 70° East 391 450 31,000  Level Indianapolis Center
08:19AM 37.5244 -82.0697 71° East 393 452 31,000  Level Indianapolis Center
08:20AM 37.5614 -81.9386 70° East 396 456 31,000  Level Indianapolis Center
08:21AM 37.5972 -81.8081 71° East 395 455 31,000  Level Indianapolis Center
08:23AM 37.6322 -81.6767 71° East 395 455 31,000  Level Indianapolis Center
08:24AM 37.6681 -81.5450 71° East 396 456 31,000  Level Indianapolis Center
08:25AM 37.7047 -81.4069 71° East 393 452 31,000  Level Indianapolis Center
08:26AM 37.7386 -81.2792 71° East 394 453 31,000  Level Indianapolis Center
08:27AM 37.7731 -81.1519 71° East 394 453 31,000  Level Indianapolis Center
08:28AM 37.8231 -81.0058 67° East 397 457 31,000  Level Indianapolis Center
08:29AM 37.8681 -80.8775 66° East 399 459 31,000  Level Indianapolis Center
08:30AM 37.9119 -80.7522 66° East 393 452 31,000  Level Indianapolis Center
08:31AM 37.9561 -80.6264 66° East 392 451 31,000  Level Indianapolis Center
08:32AM 37.9969 -80.5169 65° Northeast 390 449 31,000  Level Washington Center
08:33AM 38.0439 -80.3908 65° Northeast 390 449 31,000  Level Washington Center
08:34AM 38.0864 -80.2667 66° East 390 449 31,000  Level Washington Center
08:35AM 38.1331 -80.1378 65° Northeast 390 449 31,000  Level Washington Center
08:36AM 38.1819 -80.0006 66° East 390 449 31,000  Level Washington Center
08:37AM 38.2264 -79.8711 66° East 390 449 31,000  Level Washington Center
08:38AM 38.2703 -79.7467 66° East 390 449 31,000 -540 Level Washington Center
08:39AM 38.3142 -79.6194 66° East 390 449 30,000 -1,560 Descending Washington Center
08:40AM 38.3556 -79.5025 66° East 390 449 28,000 -2,040 Descending Washington Center
08:41AM 38.3994 -79.3750 66° East 390 449 25,900 -1,500 Descending Washington Center
08:42AM 38.4369 -79.2417 70° East 390 449 25,000 -480 Descending Washington Center
08:43AM 38.4619 -79.0944 78° East 397 457 25,000  Level Washington Center
08:44AM 38.4869 -78.9497 78° East 409 471 25,000  Level Washington Center
08:45AM 38.5103 -78.7864 80° East 423 487 25,000 -1,080 Level Washington Center
08:46AM 38.5328 -78.6414 79° East 428 493 22,900 -1,680 Descending Washington Center
08:47AM 38.5550 -78.5042 78° East 407 468 21,800 -1,080 Descending Washington Center
08:48AM 38.5769 -78.3694 78° East 396 456 20,800 -1,560 Descending Washington Center
08:49AM 38.6031 -78.2322 76° East 391 450 18,700 -1,860 Descending Washington Center
08:50AM 38.6411 -78.1089 68° East 386 444 17,200 -1,680 Descending Washington Center
08:51AM 38.6811 -77.9850 67° East 379 436 15,400 -1,740 Descending Washington Center
08:52AM 38.7189 -77.8692 67° East 361 415 13,700 -1,680 Descending Washington Center
08:53AM 38.7706 -77.7697 56° Northeast 338 389 12,100 -1,440 Descending Washington Center
08:54AM 38.8264 -77.6914 48° Northeast 316 364 10,900 -1,320 Descending Washington Center
08:55AM 38.8819 -77.6103 49° Northeast 298 343 9,500 -1,320 Descending Washington Center
08:56AM 38.9311 -77.5369 49° Northeast 298 343 8,300 -1,320 Descending Washington Center
08:57AM 38.9658 -77.4444 64° Northeast 287 330 7,000 -660 Descending Washington Center
08:58AM 38.9167 -77.3500 124° Southeast 269 310 7,000  Level Potomac TRACON
08:59AM 38.8667 -77.2833 134° Southeast 222 255 7,000 -240 Level Potomac TRACON
09:00AM 38.8667 -77.2167 90° East 233 268 6,600 -480 Descending Potomac TRACON
09:01AM 38.9000 -77.2167 360° North 211 243 6,100 -720 Descending Potomac TRACON
09:02AM 38.9333 -77.2833 303° West 196 226 5,300 -600 Descending Potomac TRACON
09:03AM 38.9833 -77.3333 322° Northwest 197 227 5,000 -180 Descending Potomac TRACON
09:04AM 39.0167 -77.3500 339° North 216 249 5,000  Level Potomac TRACON
09:05AM 39.0500 -77.2833 57° Northeast 219 252 5,000 -360 Level Potomac TRACON
09:06AM 39.0167 -77.2167 123° Southeast 219 252 4,400 -720 Descending Potomac TRACON
09:07AM 38.9833 -77.1667 131° Southeast 186 214 3,700 -1,080 Descending Potomac TRACON
09:08AM 38.9500 -77.1167 131° Southeast 183 211 2,300 -1,140 Descending Potomac TRACON
09:09AM 38.9167 -77.0833 142° Southeast 154 177 1,500 -660 Descending Potomac TRACON
09:09AM 38.8833 -77.0500 142° Southeast 126 145 1,100 -480 Descending Potomac TRACON